createdAt,value
2017-12-20T00:00:43.673Z,32.30
2017-12-20T00:01:43.685Z,32.00
2017-12-20T00:02:43.699Z,38.60
2017-12-20T00:03:43.711Z,31.30
2017-12-20T00:04:43.732Z,33.10
2017-12-20T00:05:43.737Z,35.40
2017-12-20T00:06:43.751Z,35.00
2017-12-20T00:07:43.767Z,36.40
2017-12-20T00:08:43.779Z,38.50
2017-12-20T00:09:43.791Z,35.90
2017-12-20T00:10:43.804Z,34.10
2017-12-20T00:11:43.822Z,37.00
2017-12-20T00:12:43.831Z,34.00
2017-12-20T00:13:43.849Z,36.20
2017-12-20T00:14:43.857Z,35.70
2017-12-20T00:15:43.872Z,37.40
2017-12-20T00:16:43.890Z,42.40
2017-12-20T00:17:43.897Z,37.90
2017-12-20T00:18:43.909Z,41.10
2017-12-20T00:19:43.923Z,37.50
2017-12-20T00:20:43.935Z,39.70
2017-12-20T00:21:43.948Z,37.50
2017-12-20T00:22:43.961Z,39.10
2017-12-20T00:23:43.974Z,41.40
2017-12-20T00:24:43.989Z,41.40
2017-12-20T00:25:44.003Z,40.70
2017-12-20T00:26:44.016Z,39.80
2017-12-20T00:27:44.032Z,44.90
2017-12-20T00:28:44.041Z,36.50
2017-12-20T00:29:44.056Z,38.80
2017-12-20T00:30:44.068Z,38.10
2017-12-20T00:31:44.081Z,40.90
2017-12-20T00:32:44.100Z,40.30
2017-12-20T00:33:44.109Z,41.10
2017-12-20T00:34:44.121Z,39.80
2017-12-20T00:35:44.135Z,40.50
2017-12-20T00:36:44.149Z,40.50
2017-12-20T00:37:44.161Z,40.90
2017-12-20T00:38:44.174Z,43.80
2017-12-20T00:39:44.187Z,43.10
2017-12-20T00:40:44.201Z,43.50
2017-12-20T00:41:44.215Z,43.70
2017-12-20T00:42:44.226Z,47.40
2017-12-20T00:43:44.239Z,44.20
2017-12-20T00:44:44.254Z,42.50
2017-12-20T00:45:44.267Z,43.90
2017-12-20T00:46:44.279Z,44.70
2017-12-20T00:47:44.292Z,51.30
2017-12-20T00:48:44.310Z,52.20
2017-12-20T00:49:44.319Z,45.30
2017-12-20T00:50:44.331Z,48.70
2017-12-20T00:51:44.344Z,51.70
2017-12-20T00:52:44.360Z,49.00
2017-12-20T00:53:44.371Z,47.20
2017-12-20T00:54:44.391Z,47.30
2017-12-20T00:55:44.396Z,45.80
2017-12-20T00:56:44.414Z,49.80
2017-12-20T00:57:44.427Z,49.40
2017-12-20T00:58:44.436Z,45.10
2017-12-20T00:59:44.450Z,51.30
2017-12-20T01:00:44.463Z,47.60
2017-12-20T01:01:44.476Z,47.10
2017-12-20T01:02:44.489Z,47.20
2017-12-20T01:03:44.502Z,49.40
2017-12-20T01:04:44.515Z,47.50
2017-12-20T01:05:44.532Z,48.30
2017-12-20T01:06:44.542Z,48.90
2017-12-20T01:07:44.557Z,49.00
2017-12-20T01:08:44.569Z,49.50
2017-12-20T01:09:44.582Z,51.60
2017-12-20T01:10:44.595Z,48.70
2017-12-20T01:11:44.607Z,53.70
2017-12-20T01:12:44.626Z,49.90
2017-12-20T01:13:44.636Z,51.20
2017-12-20T01:14:44.648Z,50.80
2017-12-20T01:15:44.660Z,55.70
2017-12-20T01:16:44.683Z,55.50
2017-12-20T01:17:44.687Z,52.30
2017-12-20T01:18:44.700Z,54.50
2017-12-20T01:19:44.713Z,48.30
2017-12-20T01:20:44.727Z,53.10
2017-12-20T01:21:44.741Z,51.90
2017-12-20T01:22:44.753Z,52.00
2017-12-20T01:23:44.767Z,48.30
2017-12-20T01:24:44.781Z,50.90
2017-12-20T01:25:44.793Z,51.20
2017-12-20T01:26:44.807Z,53.80
2017-12-20T01:27:44.820Z,50.20
2017-12-20T01:28:44.834Z,52.00
2017-12-20T01:29:44.845Z,49.90
2017-12-20T01:30:44.859Z,54.80
2017-12-20T01:31:44.876Z,50.70
2017-12-20T01:32:44.887Z,55.20
2017-12-20T01:33:44.900Z,53.00
2017-12-20T01:34:44.912Z,57.10
2017-12-20T01:35:44.926Z,60.00
2017-12-20T01:36:44.942Z,58.60
2017-12-20T01:37:44.952Z,55.80
2017-12-20T01:38:44.966Z,55.00
2017-12-20T01:39:44.978Z,61.40
2017-12-20T01:40:44.992Z,55.80
2017-12-20T01:41:45.004Z,54.60
2017-12-20T01:42:45.020Z,55.90
2017-12-20T01:43:45.031Z,54.90
2017-12-20T01:44:45.149Z,57.50
2017-12-20T01:45:45.057Z,66.40
2017-12-20T01:46:45.071Z,57.60
2017-12-20T01:47:45.087Z,59.90
2017-12-20T01:48:45.100Z,61.40
2017-12-20T01:49:45.114Z,60.70
2017-12-20T01:50:45.122Z,59.50
2017-12-20T01:51:45.134Z,67.40
2017-12-20T01:52:45.149Z,63.40
2017-12-20T01:53:45.161Z,64.30
2017-12-20T01:54:45.174Z,67.60
2017-12-20T01:55:45.192Z,66.40
2017-12-20T01:56:45.200Z,63.40
2017-12-20T01:57:45.212Z,63.30
2017-12-20T01:58:45.226Z,64.20
2017-12-20T01:59:45.241Z,68.70
2017-12-20T02:00:45.252Z,61.40
2017-12-20T02:01:45.267Z,71.20
2017-12-20T02:02:45.530Z,68.80
2017-12-20T02:03:45.292Z,61.30
2017-12-20T02:04:45.307Z,64.70
2017-12-20T02:05:45.321Z,65.40
2017-12-20T02:06:45.332Z,71.00
2017-12-20T02:07:45.356Z,59.80
2017-12-20T02:08:45.367Z,62.60
2017-12-20T02:09:45.373Z,64.90
2017-12-20T02:10:45.385Z,61.40
2017-12-20T02:11:45.402Z,67.70
2017-12-20T02:12:45.412Z,66.00
2017-12-20T02:13:45.425Z,68.40
2017-12-20T02:14:45.437Z,67.20
2017-12-20T02:15:45.553Z,70.40
2017-12-20T02:16:45.464Z,65.50
2017-12-20T02:17:45.476Z,68.60
2017-12-20T02:18:45.489Z,66.30
2017-12-20T02:19:45.502Z,62.80
2017-12-20T02:20:45.515Z,65.00
2017-12-20T02:21:45.530Z,69.10
2017-12-20T02:22:45.542Z,69.80
2017-12-20T02:23:45.555Z,67.10
2017-12-20T02:24:45.570Z,65.80
2017-12-20T02:25:45.585Z,63.30
2017-12-20T02:26:45.595Z,64.10
2017-12-20T02:27:45.608Z,68.20
2017-12-20T02:28:45.623Z,66.90
2017-12-20T02:29:45.635Z,65.20
2017-12-20T02:30:45.647Z,72.20
2017-12-20T02:31:45.662Z,76.20
2017-12-20T02:32:45.674Z,77.40
2017-12-20T02:33:45.692Z,73.70
2017-12-20T02:34:45.701Z,81.00
2017-12-20T02:35:45.715Z,69.50
2017-12-20T02:36:45.727Z,71.60
2017-12-20T02:37:45.742Z,66.90
2017-12-20T02:38:45.754Z,75.10
2017-12-20T02:39:45.767Z,79.00
2017-12-20T02:40:45.780Z,71.60
2017-12-20T02:41:45.796Z,70.50
2017-12-20T02:42:45.808Z,70.00
2017-12-20T02:43:45.823Z,75.30
2017-12-20T02:44:45.835Z,76.70
2017-12-20T02:45:45.847Z,72.60
2017-12-20T02:46:45.864Z,73.20
2017-12-20T02:47:45.877Z,69.70
2017-12-20T02:48:45.887Z,70.90
2017-12-20T02:49:45.901Z,67.40
2017-12-20T02:50:45.914Z,68.50
2017-12-20T02:51:45.926Z,73.10
2017-12-20T02:52:46.250Z,70.90
2017-12-20T02:53:45.955Z,68.60
2017-12-20T02:54:45.966Z,67.80
2017-12-20T02:55:45.981Z,66.00
2017-12-20T02:56:45.992Z,78.60
2017-12-20T02:57:46.007Z,79.30
2017-12-20T02:58:46.017Z,80.10
2017-12-20T02:59:46.036Z,83.90
2017-12-20T03:00:46.048Z,74.70
2017-12-20T03:01:46.058Z,88.20
2017-12-20T03:02:46.071Z,81.00
2017-12-20T03:03:46.085Z,75.20
2017-12-20T03:04:46.099Z,78.80
2017-12-20T03:05:46.116Z,78.60
2017-12-20T03:06:46.126Z,71.30
2017-12-20T03:07:46.144Z,71.60
2017-12-20T03:08:46.150Z,85.10
2017-12-20T03:09:46.210Z,66.20
2017-12-20T03:10:46.178Z,77.90
2017-12-20T03:11:46.193Z,76.00
2017-12-20T03:12:46.205Z,76.00
2017-12-20T03:13:46.219Z,79.60
2017-12-20T03:14:46.232Z,86.20
2017-12-20T03:15:46.244Z,79.30
2017-12-20T03:16:46.258Z,82.00
2017-12-20T03:17:46.275Z,81.40
2017-12-20T03:18:46.294Z,85.30
2017-12-20T03:19:46.300Z,89.00
2017-12-20T03:20:46.313Z,86.90
2017-12-20T03:21:46.327Z,88.90
2017-12-20T03:22:46.338Z,92.70
2017-12-20T03:23:46.350Z,88.80
2017-12-20T03:24:46.367Z,83.70
2017-12-20T03:25:46.379Z,89.30
2017-12-20T03:26:46.392Z,92.40
2017-12-20T03:27:46.405Z,88.30
2017-12-20T03:28:46.417Z,86.30
2017-12-20T03:29:46.431Z,92.10
2017-12-20T03:30:46.444Z,88.70
2017-12-20T03:31:46.455Z,88.50
2017-12-20T03:32:46.471Z,96.60
2017-12-20T03:33:46.484Z,101.30
2017-12-20T03:34:46.499Z,101.00
2017-12-20T03:35:46.510Z,91.70
2017-12-20T03:36:46.524Z,101.10
2017-12-20T03:37:46.538Z,98.80
2017-12-20T03:38:46.552Z,87.70
2017-12-20T03:39:46.561Z,97.90
2017-12-20T03:40:46.576Z,94.00
2017-12-20T03:41:46.590Z,93.10
2017-12-20T03:42:46.601Z,91.10
2017-12-20T03:43:46.613Z,99.40
2017-12-20T03:44:46.630Z,95.30
2017-12-20T03:45:46.643Z,104.30
2017-12-20T03:46:46.656Z,95.60
2017-12-20T03:47:46.667Z,97.80
2017-12-20T03:48:46.682Z,102.30
2017-12-20T03:49:46.702Z,100.80
2017-12-20T03:50:46.707Z,93.60
2017-12-20T03:51:46.720Z,93.80
2017-12-20T03:52:46.736Z,104.20
2017-12-20T03:53:46.746Z,98.30
2017-12-20T03:54:46.766Z,98.80
2017-12-20T03:55:46.773Z,96.10
2017-12-20T03:56:46.792Z,99.50
2017-12-20T03:57:46.805Z,92.50
2017-12-20T03:58:46.814Z,104.50
2017-12-20T03:59:46.828Z,116.40
2017-12-20T04:00:46.846Z,103.70
2017-12-20T04:01:46.855Z,101.80
2017-12-20T04:02:46.868Z,105.60
2017-12-20T04:03:46.880Z,108.90
2017-12-20T04:04:46.905Z,107.10
2017-12-20T04:05:46.909Z,117.20
2017-12-20T04:06:46.922Z,106.40
2017-12-20T04:07:46.935Z,119.50
2017-12-20T04:08:46.950Z,109.80
2017-12-20T04:09:46.964Z,115.50
2017-12-20T04:10:46.977Z,109.10
2017-12-20T04:11:46.987Z,111.70
2017-12-20T04:12:47.008Z,103.70
2017-12-20T04:13:47.016Z,112.00
2017-12-20T04:14:47.029Z,98.20
2017-12-20T04:15:47.043Z,118.40
2017-12-20T04:16:47.058Z,109.20
2017-12-20T04:17:47.070Z,99.60
2017-12-20T04:18:47.090Z,104.90
2017-12-20T04:19:47.096Z,105.50
2017-12-20T04:20:47.107Z,93.40
2017-12-20T04:21:47.116Z,90.30
2017-12-20T04:22:47.129Z,94.10
2017-12-20T04:23:47.143Z,94.50
2017-12-20T04:24:47.155Z,105.30
2017-12-20T04:25:47.171Z,101.50
2017-12-20T04:26:47.183Z,103.00
2017-12-20T04:27:47.198Z,95.60
2017-12-20T04:28:47.211Z,99.50
2017-12-20T04:29:47.223Z,97.90
2017-12-20T04:30:47.236Z,91.30
2017-12-20T04:31:47.250Z,91.90
2017-12-20T04:32:47.265Z,92.20
2017-12-20T04:33:47.278Z,96.30
2017-12-20T04:34:47.289Z,97.70
2017-12-20T04:35:47.304Z,103.40
2017-12-20T04:36:47.316Z,105.40
2017-12-20T04:37:47.329Z,90.80
2017-12-20T04:38:47.342Z,103.00
2017-12-20T04:39:47.356Z,104.60
2017-12-20T04:40:47.374Z,103.70
2017-12-20T04:41:47.384Z,95.50
2017-12-20T04:42:47.396Z,99.00
2017-12-20T04:43:47.409Z,104.90
2017-12-20T04:44:47.423Z,99.00
2017-12-20T04:45:47.437Z,95.40
2017-12-20T04:46:47.449Z,97.50
2017-12-20T04:47:47.462Z,91.70
2017-12-20T04:48:47.476Z,103.70
2017-12-20T04:49:47.489Z,102.50
2017-12-20T04:50:47.506Z,94.90
2017-12-20T04:51:47.515Z,95.60
2017-12-20T04:52:47.529Z,88.90
2017-12-20T04:53:47.541Z,91.60
2017-12-20T04:54:47.553Z,92.30
2017-12-20T04:55:47.566Z,100.90
2017-12-20T04:56:47.680Z,87.10
2017-12-20T04:57:47.597Z,99.90
2017-12-20T04:58:47.607Z,91.40
2017-12-20T04:59:47.620Z,97.90
2017-12-20T05:00:47.634Z,92.80
2017-12-20T05:01:47.648Z,95.80
2017-12-20T05:02:47.660Z,85.60
2017-12-20T05:03:47.674Z,85.50
2017-12-20T05:04:47.687Z,94.60
2017-12-20T05:05:47.700Z,86.90
2017-12-20T05:06:47.711Z,87.10
2017-12-20T05:07:47.726Z,89.50
2017-12-20T05:08:47.740Z,84.90
2017-12-20T05:09:47.754Z,86.20
2017-12-20T05:10:47.765Z,87.40
2017-12-20T05:11:47.779Z,94.50
2017-12-20T05:12:47.801Z,85.90
2017-12-20T05:13:47.807Z,89.30
2017-12-20T05:14:47.822Z,98.10
2017-12-20T05:15:47.832Z,95.00
2017-12-20T05:16:47.846Z,99.40
2017-12-20T05:17:47.858Z,102.40
2017-12-20T05:18:47.871Z,91.70
2017-12-20T05:19:47.885Z,92.90
2017-12-20T05:20:47.898Z,95.00
2017-12-20T05:21:47.911Z,94.40
2017-12-20T05:22:47.923Z,92.80
2017-12-20T05:23:47.936Z,79.20
2017-12-20T05:24:47.952Z,95.10
2017-12-20T05:25:47.965Z,88.90
2017-12-20T05:26:47.975Z,100.90
2017-12-20T05:27:47.989Z,91.90
2017-12-20T05:28:48.002Z,95.50
2017-12-20T05:29:48.015Z,96.30
2017-12-20T05:30:48.030Z,92.30
2017-12-20T05:31:48.040Z,100.80
2017-12-20T05:32:48.056Z,95.80
2017-12-20T05:33:48.066Z,87.00
2017-12-20T05:34:48.079Z,93.40
2017-12-20T05:35:48.092Z,92.00
2017-12-20T05:36:48.108Z,90.30
2017-12-20T05:37:48.118Z,91.50
2017-12-20T05:38:48.131Z,103.20
2017-12-20T05:39:48.143Z,100.80
2017-12-20T05:40:48.156Z,89.20
2017-12-20T05:41:48.169Z,89.10
2017-12-20T05:42:48.181Z,92.40
2017-12-20T05:43:48.196Z,86.90
2017-12-20T05:44:48.207Z,93.40
2017-12-20T05:45:48.222Z,82.80
2017-12-20T05:46:48.236Z,86.60
2017-12-20T05:47:48.249Z,84.00
2017-12-20T05:48:48.259Z,88.90
2017-12-20T05:49:48.272Z,83.70
2017-12-20T05:50:48.284Z,83.50
2017-12-20T05:51:48.298Z,79.30
2017-12-20T05:52:48.312Z,85.70
2017-12-20T05:53:48.324Z,80.20
2017-12-20T05:54:48.335Z,91.80
2017-12-20T05:55:48.350Z,93.60
2017-12-20T05:56:48.362Z,80.60
2017-12-20T05:57:48.375Z,75.00
2017-12-20T05:58:48.389Z,76.40
2017-12-20T05:59:48.401Z,79.80
2017-12-20T06:00:48.416Z,74.60
2017-12-20T06:01:48.428Z,72.20
2017-12-20T06:02:48.439Z,76.10
2017-12-20T06:03:48.453Z,71.90
2017-12-20T06:04:48.523Z,64.80
2017-12-20T06:05:48.480Z,73.10
2017-12-20T06:06:48.492Z,66.50
2017-12-20T06:07:48.505Z,67.10
2017-12-20T06:08:48.521Z,64.30
2017-12-20T06:09:48.533Z,64.90
2017-12-20T06:10:48.545Z,64.80
2017-12-20T06:11:48.558Z,75.30
2017-12-20T06:12:48.572Z,66.60
2017-12-20T06:13:48.587Z,71.00
2017-12-20T06:14:48.598Z,71.90
2017-12-20T06:15:48.711Z,68.40
2017-12-20T06:16:48.624Z,69.70
2017-12-20T06:17:48.638Z,73.60
2017-12-20T06:18:48.704Z,72.30
2017-12-20T06:19:48.663Z,66.90
2017-12-20T06:20:48.677Z,69.60
2017-12-20T06:21:48.691Z,71.10
2017-12-20T06:22:48.704Z,64.50
2017-12-20T06:23:48.715Z,68.00
2017-12-20T06:24:48.732Z,67.80
2017-12-20T06:25:48.742Z,73.10
2017-12-20T06:26:48.755Z,66.00
2017-12-20T06:27:48.767Z,68.00
2017-12-20T06:28:48.785Z,72.90
2017-12-20T06:29:48.794Z,68.70
2017-12-20T06:30:48.813Z,76.80
2017-12-20T06:31:48.822Z,80.10
2017-12-20T06:32:48.834Z,77.80
2017-12-20T06:33:48.849Z,74.40
2017-12-20T06:34:48.861Z,70.10
2017-12-20T06:35:48.874Z,71.90
2017-12-20T06:36:48.887Z,74.40
2017-12-20T06:37:48.901Z,76.90
2017-12-20T06:38:48.914Z,77.10
2017-12-20T06:39:48.927Z,82.90
2017-12-20T06:40:49.043Z,83.70
2017-12-20T06:41:48.954Z,78.20
2017-12-20T06:42:48.967Z,76.70
2017-12-20T06:43:48.981Z,83.90
2017-12-20T06:44:49.029Z,83.90
2017-12-20T06:45:49.008Z,75.10
2017-12-20T06:46:49.022Z,71.30
2017-12-20T06:47:49.035Z,75.20
2017-12-20T06:48:49.050Z,76.20
2017-12-20T06:49:49.062Z,79.30
2017-12-20T06:50:49.077Z,76.80
2017-12-20T06:51:49.095Z,72.90
2017-12-20T06:52:49.102Z,71.70
2017-12-20T06:53:49.116Z,72.20
2017-12-20T06:54:49.128Z,80.70
2017-12-20T06:55:49.145Z,73.50
2017-12-20T06:56:49.156Z,74.20
2017-12-20T06:57:49.170Z,75.10
2017-12-20T06:58:49.186Z,85.60
2017-12-20T06:59:49.197Z,70.20
2017-12-20T07:00:49.209Z,78.40
2017-12-20T07:01:49.222Z,79.60
2017-12-20T07:02:49.236Z,82.90
2017-12-20T07:03:49.255Z,80.20
2017-12-20T07:04:49.262Z,80.20
2017-12-20T07:05:49.275Z,77.80
2017-12-20T07:06:49.288Z,74.90
2017-12-20T07:07:49.302Z,84.40
2017-12-20T07:08:49.318Z,86.40
2017-12-20T07:09:49.334Z,87.70
2017-12-20T07:10:49.342Z,80.60
2017-12-20T07:11:49.356Z,80.70
2017-12-20T07:12:49.374Z,75.30
2017-12-20T07:13:49.384Z,75.30
2017-12-20T07:14:49.398Z,83.80
2017-12-20T07:15:49.410Z,78.10
2017-12-20T07:16:49.422Z,81.40
2017-12-20T07:17:49.437Z,85.00
2017-12-20T07:18:49.450Z,79.30
2017-12-20T07:19:49.464Z,81.90
2017-12-20T07:20:49.484Z,83.60
2017-12-20T07:21:49.492Z,84.00
2017-12-20T07:22:49.511Z,78.60
2017-12-20T07:23:49.523Z,85.50
2017-12-20T07:24:49.533Z,81.50
2017-12-20T07:25:49.547Z,80.50
2017-12-20T07:26:49.576Z,74.10
2017-12-20T07:27:49.584Z,78.30
2017-12-20T07:28:50.444Z,79.30
2017-12-20T07:29:49.607Z,87.50
2017-12-20T07:30:49.615Z,80.20
2017-12-20T07:31:49.633Z,78.70
2017-12-20T07:32:49.642Z,81.50
2017-12-20T07:33:49.661Z,72.80
2017-12-20T07:34:49.669Z,80.50
2017-12-20T07:35:49.686Z,79.60
2017-12-20T07:36:49.813Z,81.20
2017-12-20T07:37:49.726Z,83.10
2017-12-20T07:38:49.722Z,87.50
2017-12-20T07:39:49.743Z,86.70
2017-12-20T07:40:49.753Z,79.10
2017-12-20T07:41:49.766Z,76.00
2017-12-20T07:42:49.778Z,78.70
2017-12-20T07:43:49.795Z,77.20
2017-12-20T07:44:49.807Z,65.50
2017-12-20T07:45:49.821Z,68.60
2017-12-20T07:46:49.834Z,63.50
2017-12-20T07:47:49.854Z,71.10
2017-12-20T07:48:49.859Z,73.40
2017-12-20T07:49:49.877Z,74.10
2017-12-20T07:50:49.898Z,73.20
2017-12-20T07:51:49.901Z,72.90
2017-12-20T07:52:49.945Z,77.60
2017-12-20T07:53:49.934Z,72.70
2017-12-20T07:54:49.948Z,72.40
2017-12-20T07:55:49.956Z,79.00
2017-12-20T07:56:49.971Z,77.60
2017-12-20T07:57:49.991Z,67.30
2017-12-20T07:58:49.996Z,69.20
2017-12-20T07:59:50.010Z,80.60
2017-12-20T08:00:50.025Z,75.30
2017-12-20T08:01:50.039Z,70.40
2017-12-20T08:02:50.059Z,67.40
2017-12-20T08:03:50.065Z,72.90
2017-12-20T08:04:50.080Z,68.60
2017-12-20T08:05:50.094Z,73.30
2017-12-20T08:06:50.108Z,61.90
2017-12-20T08:07:50.121Z,59.20
2017-12-20T08:08:50.133Z,62.10
2017-12-20T08:09:50.149Z,66.30
2017-12-20T08:10:50.162Z,58.00
2017-12-20T08:11:50.173Z,57.60
2017-12-20T08:12:50.189Z,63.40
2017-12-20T08:13:50.202Z,59.40
2017-12-20T08:14:50.215Z,66.10
2017-12-20T08:15:50.227Z,59.30
2017-12-20T08:16:50.243Z,66.40
2017-12-20T08:17:50.257Z,60.60
2017-12-20T08:18:50.271Z,63.30
2017-12-20T08:19:50.283Z,64.90
2017-12-20T08:20:50.299Z,61.60
2017-12-20T08:21:50.314Z,69.20
2017-12-20T08:22:50.325Z,64.20
2017-12-20T08:23:50.338Z,70.00
2017-12-20T08:24:50.352Z,63.50
2017-12-20T08:25:50.366Z,66.30
2017-12-20T08:26:50.379Z,62.30
2017-12-20T08:27:50.399Z,60.70
2017-12-20T08:28:50.407Z,55.40
2017-12-20T08:29:50.429Z,56.90
2017-12-20T08:30:50.439Z,59.00
2017-12-20T08:31:50.446Z,56.60
2017-12-20T08:32:50.464Z,55.90
2017-12-20T08:33:51.097Z,54.00
2017-12-20T08:34:50.489Z,56.60
2017-12-20T08:35:50.503Z,52.80
2017-12-20T08:36:50.526Z,56.90
2017-12-20T08:37:50.531Z,53.60
2017-12-20T08:38:50.544Z,56.40
2017-12-20T08:39:50.558Z,55.80
2017-12-20T08:40:50.605Z,50.40
2017-12-20T08:41:50.585Z,56.10
2017-12-20T08:42:50.601Z,52.20
2017-12-20T08:43:50.618Z,53.70
2017-12-20T08:44:50.631Z,56.40
2017-12-20T08:45:50.965Z,55.30
2017-12-20T08:46:50.657Z,54.20
2017-12-20T08:47:50.669Z,52.50
2017-12-20T08:48:50.692Z,50.70
2017-12-20T08:49:50.697Z,53.00
2017-12-20T08:50:50.710Z,54.30
2017-12-20T08:51:50.724Z,59.80
2017-12-20T08:52:50.739Z,55.70
2017-12-20T08:53:50.753Z,52.30
2017-12-20T08:54:50.766Z,55.80
2017-12-20T08:55:50.779Z,53.20
2017-12-20T08:56:50.793Z,55.20
2017-12-20T08:57:50.807Z,59.50
2017-12-20T08:58:50.829Z,61.00
2017-12-20T08:59:50.836Z,52.50
2017-12-20T09:00:50.849Z,56.30
2017-12-20T09:01:50.860Z,58.90
2017-12-20T09:02:50.873Z,58.40
2017-12-20T09:03:50.885Z,56.50
2017-12-20T09:04:50.902Z,60.80
2017-12-20T09:05:50.914Z,56.80
2017-12-20T09:06:50.990Z,59.70
2017-12-20T09:07:50.947Z,63.30
2017-12-20T09:08:50.955Z,58.60
2017-12-20T09:09:50.973Z,58.40
2017-12-20T09:10:50.983Z,60.80
2017-12-20T09:11:50.996Z,60.50
2017-12-20T09:12:51.013Z,62.60
2017-12-20T09:13:51.313Z,60.60
2017-12-20T09:14:51.040Z,56.80
2017-12-20T09:15:51.053Z,63.10
2017-12-20T09:16:51.068Z,62.40
2017-12-20T09:17:51.084Z,65.10
2017-12-20T09:18:51.096Z,67.70
2017-12-20T09:19:51.210Z,63.20
2017-12-20T09:20:51.132Z,62.10
2017-12-20T09:21:51.156Z,63.80
2017-12-20T09:22:51.152Z,59.30
2017-12-20T09:23:51.165Z,62.00
2017-12-20T09:24:51.181Z,62.40
2017-12-20T09:25:51.205Z,69.50
2017-12-20T09:26:51.210Z,58.60
2017-12-20T09:27:51.226Z,61.40
2017-12-20T09:28:51.243Z,66.80
2017-12-20T09:29:51.273Z,65.10
2017-12-20T09:30:51.274Z,64.30
2017-12-20T09:31:51.279Z,58.90
2017-12-20T09:32:51.294Z,62.80
2017-12-20T09:33:51.307Z,62.00
2017-12-20T09:34:51.321Z,59.40
2017-12-20T09:35:51.335Z,57.50
2017-12-20T09:36:51.351Z,68.60
2017-12-20T09:37:51.366Z,63.10
2017-12-20T09:38:51.378Z,60.70
2017-12-20T09:39:51.397Z,72.20
2017-12-20T09:40:51.405Z,70.10
2017-12-20T09:41:51.420Z,70.30
2017-12-20T09:42:51.433Z,69.90
2017-12-20T09:43:51.448Z,73.00
2017-12-20T09:44:51.462Z,74.10
2017-12-20T09:45:51.478Z,78.20
2017-12-20T09:46:51.489Z,70.00
2017-12-20T09:47:51.505Z,71.70
2017-12-20T09:48:51.518Z,82.50
2017-12-20T09:49:51.531Z,80.90
2017-12-20T09:50:51.546Z,75.60
2017-12-20T09:51:51.562Z,68.00
2017-12-20T09:52:51.576Z,77.50
2017-12-20T09:53:51.589Z,81.30
2017-12-20T09:54:51.612Z,80.30
2017-12-20T09:55:51.629Z,88.80
2017-12-20T09:56:51.681Z,83.70
2017-12-20T09:57:51.647Z,82.60
2017-12-20T09:58:51.660Z,75.80
2017-12-20T09:59:51.674Z,76.20
2017-12-20T10:00:51.689Z,80.50
2017-12-20T10:01:51.700Z,81.10
2017-12-20T10:02:51.715Z,81.90
2017-12-20T10:03:51.729Z,84.70
2017-12-20T10:04:51.744Z,83.00
2017-12-20T10:05:51.759Z,74.40
2017-12-20T10:06:51.822Z,73.60
2017-12-20T10:07:51.788Z,70.40
2017-12-20T10:08:51.801Z,65.60
2017-12-20T10:09:51.815Z,70.60
2017-12-20T10:10:51.828Z,67.70
2017-12-20T10:11:51.946Z,68.90
2017-12-20T10:12:51.919Z,72.20
2017-12-20T10:13:51.871Z,63.70
2017-12-20T10:14:51.885Z,69.30
2017-12-20T10:15:52.325Z,65.90
2017-12-20T10:16:51.915Z,56.50
2017-12-20T10:17:51.929Z,59.10
2017-12-20T10:18:51.943Z,61.00
2017-12-20T10:19:51.956Z,67.60
2017-12-20T10:20:51.975Z,71.10
2017-12-20T10:21:51.987Z,71.60
2017-12-20T10:22:52.000Z,69.40
2017-12-20T10:23:52.027Z,68.40
2017-12-20T10:24:52.028Z,69.10
2017-12-20T10:25:52.043Z,68.90
2017-12-20T10:26:52.062Z,65.80
2017-12-20T10:27:52.071Z,67.70
2017-12-20T10:28:52.088Z,62.80
2017-12-20T10:29:52.100Z,62.70
2017-12-20T10:30:52.114Z,64.30
2017-12-20T10:31:52.127Z,61.80
2017-12-20T10:32:52.153Z,64.90
2017-12-20T10:33:52.156Z,67.00
2017-12-20T10:34:52.171Z,61.00
2017-12-20T10:35:52.184Z,65.20
2017-12-20T10:36:52.199Z,63.10
2017-12-20T10:37:52.213Z,60.20
2017-12-20T10:38:52.226Z,59.10
2017-12-20T10:39:52.241Z,59.60
2017-12-20T10:40:52.257Z,59.10
2017-12-20T10:41:52.271Z,56.80
2017-12-20T10:42:52.834Z,66.30
2017-12-20T10:43:52.507Z,61.90
2017-12-20T10:44:52.311Z,64.90
2017-12-20T10:45:52.328Z,60.10
2017-12-20T10:46:52.339Z,65.40
2017-12-20T10:47:52.356Z,60.60
2017-12-20T10:48:52.369Z,53.80
2017-12-20T10:49:52.387Z,55.70
2017-12-20T10:50:52.397Z,62.70
2017-12-20T10:51:52.606Z,57.70
2017-12-20T10:52:52.713Z,58.50
2017-12-20T10:53:52.994Z,62.50
2017-12-20T10:54:52.452Z,59.00
2017-12-20T10:55:52.468Z,53.70
2017-12-20T10:56:52.485Z,60.10
2017-12-20T10:57:52.496Z,59.10
2017-12-20T10:58:52.510Z,55.20
2017-12-20T10:59:52.639Z,57.30
2017-12-20T11:00:52.554Z,58.70
2017-12-20T11:01:52.563Z,54.60
2017-12-20T11:02:52.566Z,54.20
2017-12-20T11:03:52.595Z,49.40
2017-12-20T11:04:52.592Z,49.50
2017-12-20T11:05:52.619Z,53.80
2017-12-20T11:06:52.620Z,51.60
2017-12-20T11:07:52.648Z,52.50
2017-12-20T11:08:52.650Z,61.10
2017-12-20T11:09:52.665Z,62.50
2017-12-20T11:10:52.691Z,58.40
2017-12-20T11:11:52.690Z,60.60
2017-12-20T11:12:53.360Z,58.50
2017-12-20T11:13:53.352Z,60.10
2017-12-20T11:14:52.980Z,63.40
2017-12-20T11:15:54.238Z,59.60
2017-12-20T11:16:52.760Z,64.90
2017-12-20T11:17:52.775Z,61.30
2017-12-20T11:18:52.787Z,69.80
2017-12-20T11:19:52.804Z,56.40
2017-12-20T11:20:53.044Z,59.40
2017-12-20T11:21:52.835Z,58.60
2017-12-20T11:22:52.945Z,55.50
2017-12-20T11:23:53.567Z,53.10
2017-12-20T11:24:52.984Z,47.80
2017-12-20T11:25:52.890Z,53.90
2017-12-20T11:27:53.018Z,52.00
2017-12-20T11:28:52.931Z,47.20
2017-12-20T11:29:52.946Z,51.30
2017-12-20T11:30:52.965Z,48.40
2017-12-20T11:31:52.975Z,54.30
2017-12-20T11:32:52.988Z,52.70
2017-12-20T11:33:53.001Z,51.90
2017-12-20T11:34:53.017Z,52.00
2017-12-20T11:35:53.168Z,50.70
2017-12-20T11:36:53.047Z,53.10
2017-12-20T11:37:53.060Z,54.10
2017-12-20T11:38:53.083Z,61.10
2017-12-20T11:39:53.083Z,54.30
2017-12-20T11:40:53.098Z,50.70
2017-12-20T11:41:53.112Z,53.70
2017-12-20T11:42:53.126Z,57.20
2017-12-20T11:43:53.140Z,57.30
2017-12-20T11:44:53.155Z,56.40
2017-12-20T11:45:53.180Z,52.50
2017-12-20T11:46:53.195Z,51.80
2017-12-20T11:47:53.196Z,53.40
2017-12-20T11:48:53.212Z,54.30
2017-12-20T11:49:53.226Z,59.20
2017-12-20T11:50:53.255Z,53.60
2017-12-20T11:51:53.270Z,57.50
2017-12-20T11:52:53.269Z,59.70
2017-12-20T11:53:53.290Z,57.60
2017-12-20T11:54:53.296Z,58.40
2017-12-20T11:55:53.313Z,52.60
2017-12-20T11:56:53.332Z,57.20
2017-12-20T11:57:53.342Z,54.60
2017-12-20T11:58:53.359Z,55.70
2017-12-20T11:59:53.368Z,63.00
2017-12-20T12:00:53.385Z,56.00
2017-12-20T12:01:53.410Z,57.10
2017-12-20T12:02:53.411Z,60.20
2017-12-20T12:03:53.425Z,63.20
2017-12-20T12:04:53.440Z,55.20
2017-12-20T12:05:53.465Z,56.20
2017-12-20T12:06:53.468Z,52.80
2017-12-20T12:07:53.480Z,64.50
2017-12-20T12:08:53.497Z,62.30
2017-12-20T12:09:53.510Z,65.40
2017-12-20T12:10:53.525Z,60.90
2017-12-20T12:11:53.537Z,59.10
2017-12-20T12:12:53.555Z,63.30
2017-12-20T12:13:53.567Z,60.70
2017-12-20T12:14:53.581Z,56.00
2017-12-20T12:15:53.803Z,66.40
2017-12-20T12:16:53.608Z,60.20
2017-12-20T12:17:53.623Z,51.30
2017-12-20T12:18:53.638Z,56.90
2017-12-20T12:19:53.651Z,59.90
2017-12-20T12:20:53.667Z,58.80
2017-12-20T12:21:53.681Z,55.20
2017-12-20T12:22:53.834Z,55.40
2017-12-20T12:23:53.709Z,55.20
2017-12-20T12:24:55.940Z,57.10
2017-12-20T12:25:53.749Z,59.80
2017-12-20T12:26:53.754Z,59.20
2017-12-20T12:27:53.766Z,53.10
2017-12-20T12:28:53.796Z,57.20
2017-12-20T12:29:53.793Z,58.60
2017-12-20T12:30:53.806Z,62.00
2017-12-20T12:31:53.820Z,58.30
2017-12-20T12:32:53.836Z,61.80
2017-12-20T12:33:53.846Z,61.50
2017-12-20T12:34:53.866Z,59.50
2017-12-20T12:35:53.901Z,60.70
2017-12-20T12:36:53.892Z,61.60
2017-12-20T12:37:53.904Z,61.10
2017-12-20T12:38:53.919Z,63.20
2017-12-20T12:39:53.936Z,54.80
2017-12-20T12:40:53.950Z,56.90
2017-12-20T12:41:53.962Z,62.00
2017-12-20T12:42:54.028Z,60.00
2017-12-20T12:43:53.994Z,59.10
2017-12-20T12:44:54.003Z,61.10
2017-12-20T12:45:54.068Z,62.20
2017-12-20T12:46:54.031Z,65.60
2017-12-20T12:47:54.045Z,64.80
2017-12-20T12:48:54.064Z,59.60
2017-12-20T12:49:54.074Z,68.70
2017-12-20T12:50:54.087Z,70.20
2017-12-20T12:51:54.100Z,70.50
2017-12-20T12:52:54.117Z,68.70